createdAt,value
2024-05-09T00:01:54.474Z,10.80
2024-05-09T00:04:24.493Z,10.70
2024-05-09T00:06:54.322Z,10.60
2024-05-09T00:09:26.835Z,10.70
2024-05-09T00:11:56.881Z,10.70
2024-05-09T00:14:27.095Z,10.60
2024-05-09T00:16:57.492Z,10.50
2024-05-09T00:19:27.724Z,10.50
2024-05-09T00:21:57.579Z,10.50
2024-05-09T00:24:29.991Z,10.50
2024-05-09T00:27:00.756Z,10.50
2024-05-09T00:29:30.658Z,10.50
2024-05-09T00:32:00.714Z,10.40
2024-05-09T00:34:30.770Z,10.50
2024-05-09T00:37:00.666Z,10.50
2024-05-09T00:39:35.047Z,10.50
2024-05-09T00:42:04.845Z,10.50
2024-05-09T00:44:34.773Z,10.50
2024-05-09T00:47:04.801Z,10.50
2024-05-09T00:49:36.015Z,10.40
2024-05-09T00:52:06.490Z,10.40
2024-05-09T00:54:39.600Z,10.40
2024-05-09T00:57:09.615Z,10.40
2024-05-09T00:59:39.605Z,10.40
2024-05-09T01:02:09.924Z,10.40
2024-05-09T01:04:40.058Z,10.40
2024-05-09T01:07:10.517Z,10.50
2024-05-09T01:09:42.921Z,10.50
2024-05-09T01:12:13.118Z,10.60
2024-05-09T01:14:43.379Z,10.50
2024-05-09T01:17:13.563Z,10.50
2024-05-09T01:19:43.532Z,10.50
2024-05-09T01:22:13.396Z,10.60
2024-05-09T01:24:48.405Z,10.80
2024-05-09T01:27:18.215Z,10.90
2024-05-09T01:29:48.062Z,10.90
2024-05-09T01:32:17.978Z,10.90
2024-05-09T01:34:47.873Z,10.90
2024-05-09T01:37:17.687Z,10.80
2024-05-09T01:39:50.226Z,10.70
2024-05-09T01:42:20.098Z,10.60
2024-05-09T01:44:50.022Z,10.40
2024-05-09T01:47:20.042Z,10.30
2024-05-09T01:49:49.966Z,10.30
2024-05-09T01:52:19.948Z,10.30
2024-05-09T01:54:52.457Z,10.40
2024-05-09T01:57:22.432Z,10.50
2024-05-09T01:59:52.295Z,10.50
2024-05-09T02:02:22.326Z,10.40
2024-05-09T02:04:52.489Z,10.50
2024-05-09T02:07:22.485Z,10.50
2024-05-09T02:09:57.233Z,10.60
2024-05-09T02:12:27.127Z,10.60
2024-05-09T02:14:56.930Z,10.60
2024-05-09T02:17:26.936Z,10.60
2024-05-09T02:19:56.794Z,10.50
2024-05-09T02:22:26.614Z,10.40
2024-05-09T02:24:59.060Z,10.40
2024-05-09T02:27:28.881Z,10.40
2024-05-09T02:29:58.651Z,10.40
2024-05-09T02:32:28.825Z,10.40
2024-05-09T02:34:59.033Z,10.40
2024-05-09T02:37:26.267Z,10.40
2024-05-09T02:39:58.865Z,10.40
2024-05-09T02:42:26.095Z,10.40
2024-05-09T02:44:55.945Z,10.40
2024-05-09T02:47:23.371Z,10.30
2024-05-09T02:49:53.362Z,10.40
2024-05-09T02:52:20.647Z,10.30
2024-05-09T02:54:50.488Z,10.30
2024-05-09T02:57:21.789Z,10.20
2024-05-09T02:59:52.008Z,10.20
2024-05-09T03:02:19.320Z,10.10
2024-05-09T03:04:49.341Z,10.10
2024-05-09T03:07:19.061Z,10.10
2024-05-09T03:09:50.250Z,10.10
2024-05-09T03:12:20.240Z,10.10
2024-05-09T03:14:52.886Z,10.10
2024-05-09T03:17:20.249Z,10.20
2024-05-09T03:19:50.194Z,10.20
2024-05-09T03:22:17.769Z,10.20
2024-05-09T03:24:47.613Z,10.10
2024-05-09T03:27:14.794Z,10.10
2024-05-09T03:29:47.377Z,10.10
2024-05-09T03:32:14.747Z,10.10
2024-05-09T03:34:44.648Z,10.10
2024-05-09T03:37:16.117Z,10.20
2024-05-09T03:39:45.952Z,10.20
2024-05-09T03:42:15.797Z,10.20
2024-05-09T03:44:45.784Z,10.10
2024-05-09T03:47:16.032Z,10.10
2024-05-09T03:49:43.398Z,10.10
2024-05-09T03:52:13.376Z,10.10
2024-05-09T03:54:46.614Z,10.20
2024-05-09T03:57:16.500Z,10.40
2024-05-09T03:59:46.382Z,10.50
2024-05-09T04:02:17.421Z,10.60
2024-05-09T04:04:45.131Z,10.60
2024-05-09T04:07:15.008Z,10.60
2024-05-09T04:09:42.262Z,10.60
2024-05-09T04:12:12.270Z,10.70
2024-05-09T04:14:39.804Z,10.70
2024-05-09T04:17:12.497Z,10.80
2024-05-09T04:19:39.828Z,10.90
2024-05-09T04:22:09.981Z,11.00
2024-05-09T04:24:37.204Z,11.00
2024-05-09T04:27:07.467Z,11.00
2024-05-09T04:29:37.544Z,11.10
2024-05-09T04:32:07.896Z,11.10
2024-05-09T04:34:38.162Z,11.20
2024-05-09T04:37:08.119Z,11.20
2024-05-09T04:39:35.304Z,11.20
2024-05-09T04:42:05.104Z,11.20
2024-05-09T04:44:32.456Z,11.20
2024-05-09T04:47:02.383Z,11.30
2024-05-09T04:49:29.807Z,11.30
2024-05-09T04:52:02.370Z,11.40
2024-05-09T04:54:35.863Z,11.40
2024-05-09T04:57:06.984Z,11.50
2024-05-09T04:59:34.522Z,11.60
2024-05-09T05:02:04.651Z,11.70
2024-05-09T05:04:32.572Z,11.70
2024-05-09T05:07:05.132Z,11.80
2024-05-09T05:09:32.395Z,11.90
2024-05-09T05:12:05.656Z,11.90
2024-05-09T05:14:33.054Z,11.90
2024-05-09T05:17:05.385Z,11.90
2024-05-09T05:19:32.804Z,12.00
2024-05-09T05:22:05.666Z,12.00
2024-05-09T05:24:33.064Z,12.10
2024-05-09T05:27:03.020Z,12.10
2024-05-09T05:29:30.333Z,12.20
2024-05-09T05:32:00.406Z,12.30
2024-05-09T05:34:27.773Z,12.30
2024-05-09T05:36:57.868Z,12.40
2024-05-09T05:39:27.799Z,12.50
2024-05-09T05:41:57.648Z,12.60
2024-05-09T05:44:24.967Z,12.80
2024-05-09T05:46:54.813Z,12.90
2024-05-09T05:49:22.256Z,13.00
2024-05-09T05:51:52.403Z,13.20
2024-05-09T05:54:22.794Z,13.40
2024-05-09T05:56:55.629Z,13.60
2024-05-09T05:59:24.068Z,14.00
2024-05-09T06:01:54.124Z,14.30
2024-05-09T06:04:21.520Z,14.50
2024-05-09T06:06:52.423Z,14.80
2024-05-09T06:09:19.793Z,15.00
2024-05-09T06:11:49.894Z,15.20
2024-05-09T06:14:19.903Z,15.40
2024-05-09T06:16:50.254Z,15.90
2024-05-09T06:19:18.637Z,17.60
2024-05-09T06:21:48.609Z,20.10
2024-05-09T06:24:15.986Z,21.10
2024-05-09T06:26:46.545Z,22.90
2024-05-09T06:29:14.181Z,25.30
2024-05-09T06:31:47.192Z,27.20
2024-05-09T06:34:18.707Z,28.80
2024-05-09T06:36:48.666Z,30.60
2024-05-09T06:39:16.000Z,32.10
2024-05-09T06:41:45.767Z,31.40
2024-05-09T06:44:13.193Z,31.20
2024-05-09T06:46:43.183Z,31.40
2024-05-09T06:49:13.741Z,30.20
2024-05-09T06:51:45.365Z,30.50
2024-05-09T06:54:12.766Z,29.20
2024-05-09T06:56:42.762Z,27.40
2024-05-09T06:59:10.237Z,26.30
2024-05-09T07:01:40.099Z,25.80
2024-05-09T07:04:07.530Z,25.20
2024-05-09T07:06:40.276Z,25.40
2024-05-09T07:09:07.500Z,27.40
2024-05-09T07:11:38.121Z,29.10
2024-05-09T07:14:05.437Z,29.50
2024-05-09T07:16:35.751Z,30.70
2024-05-09T07:19:03.197Z,31.20
2024-05-09T07:21:34.047Z,31.90
2024-05-09T07:24:04.357Z,31.70
2024-05-09T07:26:34.389Z,31.60
2024-05-09T07:29:01.804Z,32.40
2024-05-09T07:31:32.074Z,31.40
2024-05-09T07:34:00.664Z,32.00
2024-05-09T07:36:30.670Z,31.40
2024-05-09T07:38:57.879Z,30.90
2024-05-09T07:41:30.837Z,30.90
2024-05-09T07:43:58.988Z,31.10
2024-05-09T07:47:36.868Z,31.20
2024-05-09T07:53:20.399Z,31.40
2024-05-09T07:54:42.092Z,32.20
2024-05-09T07:57:12.418Z,32.40
2024-05-09T07:59:42.390Z,30.80
2024-05-09T08:02:09.795Z,30.70
2024-05-09T08:04:40.082Z,31.90
2024-05-09T08:07:07.728Z,32.50
2024-05-09T08:09:39.748Z,32.60
2024-05-09T08:12:09.438Z,31.80
2024-05-09T08:14:42.171Z,31.30
2024-05-09T08:17:09.483Z,31.30
2024-05-09T08:19:40.877Z,31.60
2024-05-09T08:22:09.333Z,32.20
2024-05-09T08:24:39.405Z,32.20
2024-05-09T08:27:06.708Z,32.10
2024-05-09T08:29:37.537Z,32.00
2024-05-09T08:32:12.310Z,32.40
2024-05-09T08:34:42.589Z,32.10
2024-05-09T08:37:15.586Z,31.40
2024-05-09T08:39:51.260Z,31.20
2024-05-09T08:42:18.720Z,31.30
2024-05-09T08:44:51.398Z,31.90
2024-05-09T08:47:21.405Z,32.00
2024-05-09T08:49:58.277Z,32.90
2024-05-09T08:52:25.635Z,32.80
2024-05-09T08:54:56.150Z,33.20
2024-05-09T08:57:25.314Z,32.00
2024-05-09T08:59:56.794Z,31.10
2024-05-09T09:02:30.726Z,31.60
2024-05-09T09:05:06.165Z,32.40
2024-05-09T09:07:33.851Z,31.80
2024-05-09T09:10:08.553Z,32.20
2024-05-09T09:12:36.111Z,32.10
2024-05-09T09:15:06.599Z,32.60
2024-05-09T09:17:36.683Z,32.30
2024-05-09T09:20:11.380Z,32.20
2024-05-09T09:22:41.582Z,32.20
2024-05-09T09:25:12.138Z,32.60
2024-05-09T09:27:40.160Z,33.60
2024-05-09T09:30:22.964Z,32.50
2024-05-09T09:33:00.722Z,31.90
2024-05-09T09:35:38.521Z,32.20
2024-05-09T09:38:07.601Z,33.20
2024-05-09T09:40:42.809Z,33.70
2024-05-09T09:43:18.775Z,33.60
2024-05-09T09:45:53.847Z,34.10
2024-05-09T09:48:26.108Z,32.80
2024-05-09T09:51:00.062Z,32.40
2024-05-09T09:53:28.825Z,32.70
2024-05-09T09:55:59.350Z,32.80
2024-05-09T09:58:29.590Z,33.60
2024-05-09T10:00:59.773Z,33.80
2024-05-09T10:03:29.899Z,34.00
2024-05-09T10:06:01.109Z,32.30
2024-05-09T10:08:28.889Z,30.00
2024-05-09T10:10:58.996Z,29.30
2024-05-09T10:13:34.200Z,29.40
2024-05-09T10:16:11.289Z,29.40
2024-05-09T10:18:43.662Z,29.50
2024-05-09T10:21:20.440Z,29.40
2024-05-09T10:23:58.539Z,30.40
2024-05-09T10:26:35.716Z,30.90
2024-05-09T10:29:17.541Z,31.00
2024-05-09T10:31:48.376Z,30.30
2024-05-09T10:34:22.718Z,30.90
2024-05-09T10:37:05.036Z,31.30
2024-05-09T10:39:42.992Z,31.00
2024-05-09T10:42:13.083Z,30.50
2024-05-09T10:44:40.238Z,30.50
2024-05-09T10:47:10.163Z,30.20
2024-05-09T10:49:42.122Z,30.50
2024-05-09T10:52:12.041Z,31.20
2024-05-09T10:54:40.054Z,31.40
2024-05-09T10:57:21.782Z,31.60
2024-05-09T11:00:00.127Z,31.00
2024-05-09T11:02:31.697Z,31.40
2024-05-09T11:05:02.347Z,30.80
2024-05-09T11:07:33.435Z,30.80
2024-05-09T11:10:02.091Z,30.50
2024-05-09T11:12:32.926Z,30.10
2024-05-09T11:15:00.636Z,28.60
2024-05-09T11:17:30.597Z,27.10
2024-05-09T11:20:00.668Z,27.40
2024-05-09T11:22:34.951Z,28.10
2024-05-09T11:25:03.731Z,28.50
2024-05-09T11:27:34.898Z,28.00
2024-05-09T11:30:02.384Z,27.20
2024-05-09T11:32:33.689Z,26.60
2024-05-09T11:35:04.484Z,27.00
2024-05-09T11:37:37.291Z,27.10
2024-05-09T11:40:11.420Z,26.70
2024-05-09T11:42:43.482Z,26.70
2024-05-09T11:45:11.615Z,27.00
2024-05-09T11:47:42.157Z,26.60
2024-05-09T11:50:19.542Z,26.20
2024-05-09T11:52:56.974Z,25.60
2024-05-09T11:55:27.787Z,24.90
2024-05-09T11:57:58.648Z,24.60
2024-05-09T12:00:33.977Z,24.30
2024-05-09T12:03:07.621Z,23.60
2024-05-09T12:05:37.582Z,23.50
2024-05-09T12:08:08.194Z,23.60
2024-05-09T12:10:36.747Z,23.50
2024-05-09T12:13:08.086Z,23.30
2024-05-09T12:15:37.835Z,22.90
2024-05-09T12:18:09.456Z,22.30
2024-05-09T12:20:40.402Z,22.10
2024-05-09T12:23:11.300Z,21.90
2024-05-09T12:25:40.216Z,21.70
2024-05-09T12:28:11.897Z,21.60
2024-05-09T12:30:40.769Z,21.50
2024-05-09T12:33:14.186Z,21.60
2024-05-09T12:35:46.663Z,21.70
2024-05-09T12:38:18.148Z,21.70
2024-05-09T12:40:45.876Z,21.70
2024-05-09T12:43:16.107Z,21.80
2024-05-09T12:45:43.535Z,21.90
2024-05-09T12:48:14.764Z,21.80
2024-05-09T12:50:45.646Z,21.80
2024-05-09T12:53:15.641Z,21.90
2024-05-09T12:55:48.984Z,21.90
2024-05-09T12:58:26.802Z,22.00
2024-05-09T13:00:55.165Z,22.10
2024-05-09T13:03:25.304Z,22.10
2024-05-09T13:05:55.415Z,21.80
2024-05-09T13:08:27.723Z,21.50
2024-05-09T13:10:55.385Z,21.30
2024-05-09T13:13:25.435Z,21.30
2024-05-09T13:15:52.693Z,21.20
2024-05-09T13:18:22.629Z,21.20
2024-05-09T13:20:49.867Z,21.20
2024-05-09T13:23:22.448Z,21.30
2024-05-09T13:25:52.560Z,21.30
2024-05-09T13:28:22.912Z,21.40
2024-05-09T13:30:50.288Z,21.50
2024-05-09T13:33:20.447Z,21.60
2024-05-09T13:35:50.546Z,21.50
2024-05-09T13:38:24.054Z,21.30
2024-05-09T13:40:52.862Z,21.30
2024-05-09T13:43:24.345Z,21.30
2024-05-09T13:45:52.278Z,21.40
2024-05-09T13:48:22.428Z,21.50
2024-05-09T13:50:49.703Z,21.70
2024-05-09T13:53:19.793Z,21.70
2024-05-09T13:55:49.841Z,21.60
2024-05-09T13:58:19.889Z,21.60
2024-05-09T14:00:49.043Z,21.60
2024-05-09T14:03:21.129Z,21.60
2024-05-09T14:05:50.873Z,21.50
2024-05-09T14:08:22.572Z,21.30
2024-05-09T14:10:53.752Z,21.50
2024-05-09T14:13:23.975Z,21.60
2024-05-09T14:15:51.494Z,21.80
2024-05-09T14:18:21.828Z,21.80
2024-05-09T14:20:49.131Z,21.70
2024-05-09T14:23:20.549Z,21.60
2024-05-09T14:25:51.316Z,21.70
2024-05-09T14:28:26.428Z,21.60
2024-05-09T14:30:56.486Z,21.70
2024-05-09T14:33:27.644Z,21.80
2024-05-09T14:35:55.128Z,21.70
2024-05-09T14:38:25.634Z,21.80
2024-05-09T14:40:53.126Z,21.70
2024-05-09T14:43:25.944Z,21.80
2024-05-09T14:45:53.580Z,21.90
2024-05-09T14:48:23.769Z,21.90
2024-05-09T14:50:51.018Z,21.90
2024-05-09T14:53:20.860Z,21.80
2024-05-09T14:55:49.832Z,21.70
2024-05-09T14:58:20.305Z,21.70
2024-05-09T15:00:51.521Z,21.60
2024-05-09T15:03:22.787Z,21.40
2024-05-09T15:05:51.491Z,21.20
2024-05-09T15:08:22.374Z,21.10
2024-05-09T15:10:50.566Z,21.00
2024-05-09T15:13:23.172Z,20.90
2024-05-09T15:15:53.391Z,20.90
2024-05-09T15:18:23.700Z,21.00
2024-05-09T15:20:52.255Z,21.00
2024-05-09T15:23:22.486Z,20.90
2024-05-09T15:25:49.807Z,20.90
2024-05-09T15:28:20.030Z,21.00
2024-05-09T15:30:48.154Z,21.00
2024-05-09T15:33:21.231Z,21.00
2024-05-09T15:35:48.518Z,21.10
2024-05-09T15:38:18.957Z,21.20
2024-05-09T15:40:46.547Z,21.20
2024-05-09T15:43:16.844Z,21.00
2024-05-09T15:45:44.199Z,21.00
2024-05-09T15:48:14.452Z,21.00
2024-05-09T15:50:44.917Z,21.00
2024-05-09T15:53:19.457Z,21.00
2024-05-09T15:55:48.004Z,21.00
2024-05-09T15:58:19.143Z,21.00
2024-05-09T16:00:52.991Z,21.00
2024-05-09T16:03:25.068Z,21.00
2024-05-09T16:05:57.555Z,20.90
2024-05-09T16:08:27.996Z,20.90
2024-05-09T16:10:55.572Z,20.80
2024-05-09T16:13:25.885Z,20.80
2024-05-09T16:15:53.808Z,20.60
2024-05-09T16:18:24.282Z,20.60
2024-05-09T16:20:58.762Z,20.50
2024-05-09T16:23:31.704Z,20.40
2024-05-09T16:25:59.016Z,20.40
2024-05-09T16:28:28.938Z,20.40
2024-05-09T16:30:56.866Z,20.40
2024-05-09T16:33:26.907Z,20.40
2024-05-09T16:35:54.398Z,20.30
2024-05-09T16:38:24.447Z,20.30
2024-05-09T16:40:54.742Z,20.20
2024-05-09T16:43:24.681Z,20.20
2024-05-09T16:45:52.151Z,20.10
2024-05-09T16:48:23.652Z,20.00
2024-05-09T16:50:50.994Z,20.00
2024-05-09T16:53:23.316Z,19.90
2024-05-09T16:55:56.860Z,19.80
2024-05-09T16:58:27.491Z,19.80
2024-05-09T17:00:56.648Z,19.70
2024-05-09T17:03:27.342Z,19.70
2024-05-09T17:05:54.875Z,19.60
2024-05-09T17:08:25.046Z,19.50
2024-05-09T17:10:55.618Z,19.50
2024-05-09T17:13:26.029Z,19.40
2024-05-09T17:15:53.701Z,19.40
2024-05-09T17:18:24.207Z,19.30
2024-05-09T17:20:54.874Z,19.30
2024-05-09T17:23:22.210Z,19.20
2024-05-09T17:25:52.160Z,19.10
2024-05-09T17:28:24.396Z,19.00
2024-05-09T17:30:54.657Z,19.00
2024-05-09T17:33:25.072Z,18.90
2024-05-09T17:35:55.516Z,18.80
2024-05-09T17:38:23.694Z,18.80
2024-05-09T17:40:54.670Z,18.80
2024-05-09T17:43:25.139Z,18.70
2024-05-09T17:45:55.134Z,18.60
2024-05-09T17:48:28.225Z,18.60
2024-05-09T17:50:58.439Z,18.50
2024-05-09T17:53:28.307Z,18.50
2024-05-09T17:56:28.563Z,18.40
2024-05-09T17:58:59.315Z,18.30
2024-05-09T18:01:33.038Z,18.20
2024-05-09T18:04:04.135Z,18.10
2024-05-09T18:06:37.682Z,18.00
2024-05-09T18:09:05.659Z,17.90
2024-05-09T18:11:43.395Z,17.80
2024-05-09T18:14:15.793Z,17.70
2024-05-09T18:16:49.059Z,17.70
2024-05-09T18:19:22.208Z,17.50
2024-05-09T18:21:55.261Z,17.50
2024-05-09T18:24:22.469Z,17.40
2024-05-09T18:26:52.609Z,17.30
2024-05-09T18:29:25.744Z,17.30
2024-05-09T18:31:56.015Z,17.30
2024-05-09T18:34:26.364Z,17.30
2024-05-09T18:36:57.006Z,17.20
2024-05-09T18:39:24.217Z,17.20
2024-05-09T18:41:54.241Z,17.20
2024-05-09T18:44:29.244Z,17.10
2024-05-09T18:51:36.334Z,17.00
2024-05-09T18:54:03.922Z,17.00
2024-05-09T18:56:40.874Z,17.00
2024-05-09T18:59:09.420Z,16.90
2024-05-09T19:01:45.508Z,16.80
2024-05-09T19:04:14.722Z,16.60
2024-05-09T19:06:51.861Z,16.60
2024-05-09T19:09:19.180Z,16.50
2024-05-09T19:11:51.806Z,16.50
2024-05-09T19:14:19.355Z,16.40
2024-05-09T19:16:53.212Z,16.30
2024-05-09T19:19:20.917Z,16.30
2024-05-09T19:21:50.903Z,16.30
2024-05-09T19:24:23.751Z,16.40
2024-05-09T19:26:53.936Z,16.40
2024-05-09T19:29:23.485Z,16.40
2024-05-09T19:31:56.030Z,16.40
2024-05-09T19:34:30.890Z,16.40
2024-05-09T19:37:03.323Z,16.20
2024-05-09T19:39:31.046Z,16.10
2024-05-09T19:42:00.983Z,16.00
2024-05-09T19:44:33.959Z,15.90
2024-05-09T19:47:07.395Z,15.80
2024-05-09T19:49:34.953Z,15.70
2024-05-09T19:52:15.058Z,15.60
2024-05-09T19:54:44.876Z,15.40
2024-05-09T20:00:01.222Z,15.20
2024-05-09T20:02:42.990Z,15.10
2024-05-09T20:05:18.991Z,15.00
2024-05-09T20:07:46.206Z,14.90
2024-05-09T20:10:23.907Z,14.80
2024-05-09T20:12:56.722Z,14.70
2024-05-09T20:15:26.801Z,14.60
2024-05-09T20:17:58.840Z,14.50
2024-05-09T20:20:37.031Z,14.50
2024-05-09T20:23:10.105Z,14.40
2024-05-09T20:25:40.176Z,14.50
2024-05-09T20:28:08.849Z,14.50
2024-05-09T20:30:39.254Z,14.40
2024-05-09T20:33:10.059Z,14.40
2024-05-09T20:35:41.724Z,14.30
2024-05-09T20:38:08.938Z,14.30
2024-05-09T20:40:39.968Z,14.40
2024-05-09T20:43:08.697Z,14.40
2024-05-09T20:45:45.690Z,14.50
2024-05-09T20:48:15.761Z,14.60
2024-05-09T20:50:46.034Z,14.70
2024-05-09T20:53:14.754Z,14.70
2024-05-09T20:55:45.859Z,14.70
2024-05-09T20:58:13.782Z,14.80
2024-05-09T21:00:45.715Z,14.80
2024-05-09T21:03:17.551Z,14.70
2024-05-09T21:05:48.659Z,14.60
2024-05-09T21:08:16.248Z,14.60
2024-05-09T21:10:46.276Z,14.70
2024-05-09T21:13:13.499Z,14.60
2024-05-09T21:15:43.604Z,14.60
2024-05-09T21:18:10.908Z,14.70
2024-05-09T21:20:43.477Z,14.70
2024-05-09T21:23:10.755Z,14.70
2024-05-09T21:25:40.674Z,14.70
2024-05-09T21:28:08.092Z,14.60
2024-05-09T21:30:41.992Z,14.60
2024-05-09T21:33:12.933Z,14.70
2024-05-09T21:35:49.210Z,14.70
2024-05-09T21:38:18.162Z,14.50
2024-05-09T21:40:48.064Z,14.50
2024-05-09T21:43:15.515Z,14.40
2024-05-09T21:45:45.643Z,14.20
2024-05-09T21:48:13.757Z,14.10
2024-05-09T21:50:55.007Z,14.00
2024-05-09T21:53:22.294Z,13.90
2024-05-09T21:55:52.150Z,13.70
2024-05-09T21:58:19.496Z,13.70
2024-05-09T22:00:49.486Z,13.60
2024-05-09T22:03:16.986Z,13.60
2024-05-09T22:05:52.594Z,13.60
2024-05-09T22:08:19.900Z,13.40
2024-05-09T22:10:51.048Z,13.40
2024-05-09T22:13:20.396Z,13.30
2024-05-09T22:15:50.651Z,13.30
2024-05-09T22:18:18.216Z,13.20
2024-05-09T22:20:50.894Z,13.20
2024-05-09T22:23:18.240Z,13.10
2024-05-09T22:25:48.216Z,13.10
2024-05-09T22:28:17.273Z,13.10
2024-05-09T22:30:47.823Z,13.00
2024-05-09T22:33:15.671Z,12.90
2024-05-09T22:35:45.713Z,12.90
2024-05-09T22:38:15.931Z,12.80
2024-05-09T22:40:49.627Z,12.70
2024-05-09T22:43:23.455Z,12.70
2024-05-09T22:45:55.717Z,12.60
2024-05-09T22:48:24.266Z,12.50
2024-05-09T22:50:54.840Z,12.50
2024-05-09T22:53:25.832Z,12.50
2024-05-09T22:55:56.545Z,12.40
2024-05-09T22:58:24.323Z,12.40
2024-05-09T23:00:54.404Z,12.40
2024-05-09T23:03:22.844Z,12.40
2024-05-09T23:05:52.946Z,12.30
2024-05-09T23:08:20.167Z,12.30
2024-05-09T23:10:53.025Z,12.30
2024-05-09T23:13:21.059Z,12.20
2024-05-09T23:15:52.242Z,12.20
2024-05-09T23:18:19.843Z,12.20
2024-05-09T23:20:50.053Z,12.30
2024-05-09T23:23:17.682Z,12.20
2024-05-09T23:25:48.422Z,12.20
2024-05-09T23:28:18.953Z,12.30
2024-05-09T23:30:48.928Z,12.30
2024-05-09T23:33:16.753Z,12.30
2024-05-09T23:35:46.713Z,12.20
2024-05-09T23:38:14.450Z,12.10
2024-05-09T23:40:44.495Z,12.00
2024-05-09T23:43:12.701Z,12.00
2024-05-09T23:45:46.295Z,12.00
2024-05-09T23:48:13.724Z,11.90
2024-05-09T23:50:44.098Z,11.90
2024-05-09T23:53:11.569Z,11.80
2024-05-09T23:55:41.767Z,11.80
2024-05-09T23:58:09.457Z,11.80
